createdAt,value
2022-12-20T00:00:51.609Z,2.20
2022-12-20T00:03:18.068Z,1.73
2022-12-20T00:05:44.623Z,1.48
2022-12-20T00:08:11.074Z,1.00
2022-12-20T00:10:38.222Z,2.97
2022-12-20T00:13:04.821Z,2.22
2022-12-20T00:15:31.496Z,1.35
2022-12-20T00:17:58.213Z,2.13
2022-12-20T00:20:25.595Z,2.35
2022-12-20T00:22:52.068Z,1.98
2022-12-20T00:25:20.221Z,2.85
2022-12-20T00:27:47.395Z,2.22
2022-12-20T00:30:14.391Z,3.15
2022-12-20T00:32:41.113Z,5.18
2022-12-20T00:35:07.658Z,5.63
2022-12-20T00:37:34.076Z,5.93
2022-12-20T00:40:00.432Z,5.25
2022-12-20T00:42:26.875Z,4.90
2022-12-20T00:44:53.212Z,4.80
2022-12-20T00:47:19.692Z,4.90
2022-12-20T00:49:46.073Z,4.40
2022-12-20T00:52:12.417Z,3.78
2022-12-20T00:54:38.711Z,3.72
2022-12-20T00:57:05.340Z,4.85
2022-12-20T00:59:32.987Z,4.82
2022-12-20T01:01:59.539Z,4.38
2022-12-20T01:04:26.213Z,4.30
2022-12-20T01:06:52.530Z,3.20
2022-12-20T01:09:18.827Z,2.22
2022-12-20T01:11:45.148Z,1.90
2022-12-20T01:14:15.342Z,1.90
2022-12-20T01:16:43.191Z,1.20
2022-12-20T01:19:10.770Z,3.03
2022-12-20T01:21:39.768Z,2.25
2022-12-20T01:24:06.191Z,4.72
2022-12-20T01:26:32.664Z,5.63
2022-12-20T01:28:59.892Z,7.15
2022-12-20T01:31:29.641Z,5.38
2022-12-20T01:33:56.055Z,4.63
2022-12-20T01:36:25.387Z,5.85
2022-12-20T01:38:55.498Z,6.45
2022-12-20T01:41:22.942Z,4.88
2022-12-20T01:43:49.264Z,4.82
2022-12-20T01:46:16.320Z,2.95
2022-12-20T01:48:44.221Z,2.03
2022-12-20T01:51:10.949Z,1.80
2022-12-20T01:53:37.433Z,1.65
2022-12-20T01:56:05.281Z,2.85
2022-12-20T01:58:32.532Z,3.97
2022-12-20T02:00:58.996Z,4.22
2022-12-20T02:03:25.499Z,3.47
2022-12-20T02:05:52.226Z,2.55
2022-12-20T02:08:19.719Z,3.03
2022-12-20T02:11:04.463Z,4.60
2022-12-20T02:13:30.818Z,5.75
2022-12-20T02:15:57.987Z,8.35
2022-12-20T02:18:50.444Z,7.40
2022-12-20T02:21:23.705Z,7.00
2022-12-20T02:24:02.128Z,7.07
2022-12-20T02:26:28.435Z,6.82
2022-12-20T02:29:04.089Z,6.65
2022-12-20T02:31:34.400Z,4.85
2022-12-20T02:34:02.287Z,3.58
2022-12-20T02:36:28.762Z,2.38
2022-12-20T02:38:55.082Z,1.75
2022-12-20T02:41:23.656Z,2.88
2022-12-20T02:44:10.828Z,1.98
2022-12-20T02:46:37.969Z,1.10
2022-12-20T02:49:11.490Z,1.70
2022-12-20T02:51:38.101Z,1.60
2022-12-20T02:54:04.733Z,1.27
2022-12-20T02:56:51.327Z,2.00
2022-12-20T02:59:17.792Z,2.90
2022-12-20T03:01:47.291Z,3.60
2022-12-20T03:04:14.543Z,4.15
2022-12-20T03:06:55.508Z,3.80
2022-12-20T03:09:21.849Z,3.40
2022-12-20T03:11:48.148Z,3.50
2022-12-20T03:14:14.455Z,2.50
2022-12-20T03:16:40.849Z,3.35
2022-12-20T03:19:07.160Z,3.40
2022-12-20T03:21:33.463Z,4.25
2022-12-20T03:23:59.870Z,3.35
2022-12-20T03:26:26.298Z,3.22
2022-12-20T03:28:52.626Z,3.58
2022-12-20T03:31:19.254Z,3.85
2022-12-20T03:33:45.601Z,4.25
2022-12-20T03:36:11.892Z,3.95
2022-12-20T03:38:38.233Z,4.55
2022-12-20T03:41:04.686Z,5.43
2022-12-20T03:43:31.053Z,7.20
2022-12-20T03:45:57.459Z,5.82
2022-12-20T03:48:23.787Z,4.10
2022-12-20T03:50:50.138Z,3.63
2022-12-20T03:53:16.450Z,6.40
2022-12-20T03:55:45.413Z,5.80
2022-12-20T03:58:12.263Z,5.43
2022-12-20T04:00:38.751Z,5.80
2022-12-20T04:03:05.257Z,7.80
2022-12-20T04:05:31.801Z,6.97
2022-12-20T04:07:58.303Z,6.15
2022-12-20T04:10:24.661Z,5.55
2022-12-20T04:12:50.973Z,5.13
2022-12-20T04:15:17.535Z,3.83
2022-12-20T04:17:43.940Z,2.50
2022-12-20T04:20:19.443Z,3.13
2022-12-20T04:22:49.782Z,5.13
2022-12-20T04:25:17.161Z,4.43
2022-12-20T04:27:43.739Z,4.72
2022-12-20T04:30:10.754Z,5.70
2022-12-20T04:32:37.530Z,4.47
2022-12-20T04:35:04.228Z,3.65
2022-12-20T04:37:31.117Z,3.65
2022-12-20T04:39:58.387Z,4.97
2022-12-20T04:42:25.201Z,5.57
2022-12-20T04:44:51.499Z,5.30
2022-12-20T04:47:17.877Z,3.00
2022-12-20T04:49:44.319Z,2.40
2022-12-20T04:52:29.357Z,1.88
2022-12-20T04:54:55.818Z,1.60
2022-12-20T04:57:22.128Z,1.95
2022-12-20T04:59:48.483Z,3.15
2022-12-20T05:02:15.147Z,3.70
2022-12-20T05:04:41.509Z,4.13
2022-12-20T05:07:08.316Z,5.35
2022-12-20T05:09:34.723Z,3.60
2022-12-20T05:12:01.070Z,4.43
2022-12-20T05:14:27.370Z,5.78
2022-12-20T05:16:53.717Z,6.75
2022-12-20T05:19:20.145Z,5.85
2022-12-20T05:22:05.308Z,4.78
2022-12-20T05:24:50.129Z,3.63
2022-12-20T05:27:16.601Z,3.97
2022-12-20T05:29:42.927Z,4.50
2022-12-20T05:32:09.224Z,2.95
2022-12-20T05:34:35.649Z,2.15
2022-12-20T05:37:02.003Z,2.25
2022-12-20T05:39:28.474Z,2.22
2022-12-20T05:41:54.858Z,1.98
2022-12-20T05:44:22.250Z,2.75
2022-12-20T05:46:48.705Z,2.28
2022-12-20T05:49:15.136Z,1.80
2022-12-20T05:51:41.440Z,2.60
2022-12-20T05:54:07.900Z,2.92
2022-12-20T05:56:34.298Z,3.00
2022-12-20T05:59:00.715Z,3.25
2022-12-20T06:01:27.086Z,3.45
2022-12-20T06:03:53.674Z,3.42
2022-12-20T06:06:20.050Z,2.25
2022-12-20T06:08:46.442Z,2.95
2022-12-20T06:11:12.967Z,3.47
2022-12-20T06:13:39.377Z,4.93
2022-12-20T06:16:05.854Z,5.47
2022-12-20T06:18:32.308Z,4.78
2022-12-20T06:20:58.782Z,4.40
2022-12-20T06:23:25.170Z,4.55
2022-12-20T06:25:51.568Z,4.43
2022-12-20T06:28:21.923Z,4.80
2022-12-20T06:30:55.834Z,3.63
2022-12-20T06:33:22.160Z,4.25
2022-12-20T06:35:51.467Z,4.15
2022-12-20T06:38:18.567Z,3.58
2022-12-20T06:40:44.985Z,4.00
2022-12-20T06:43:11.332Z,3.42
2022-12-20T06:45:41.492Z,3.13
2022-12-20T06:48:08.696Z,3.22
2022-12-20T06:50:34.980Z,2.60
2022-12-20T06:53:01.380Z,2.78
2022-12-20T06:55:27.664Z,3.83
2022-12-20T06:57:55.252Z,3.35
2022-12-20T07:00:22.249Z,2.65
2022-12-20T07:02:48.628Z,2.03
2022-12-20T07:05:15.134Z,2.50
2022-12-20T07:07:45.095Z,1.92
2022-12-20T07:10:12.111Z,3.03
2022-12-20T07:12:42.499Z,1.98
2022-12-20T07:15:13.697Z,1.52
2022-12-20T07:17:39.998Z,3.20
2022-12-20T07:20:13.006Z,2.67
2022-12-20T07:22:40.295Z,4.35
2022-12-20T07:25:06.656Z,3.85
2022-12-20T07:27:32.990Z,2.95
2022-12-20T07:29:59.393Z,2.95
2022-12-20T07:32:25.868Z,2.70
2022-12-20T07:34:52.621Z,4.07
2022-12-20T07:37:19.017Z,4.50
2022-12-20T07:39:45.365Z,4.15
2022-12-20T07:42:11.741Z,4.95
2022-12-20T07:44:39.289Z,4.57
2022-12-20T07:47:05.766Z,5.10
2022-12-20T07:49:32.125Z,3.72
2022-12-20T07:51:59.690Z,3.00
2022-12-20T07:54:28.480Z,2.22
2022-12-20T07:56:57.238Z,1.85
2022-12-20T07:59:25.751Z,1.42
2022-12-20T08:01:52.295Z,1.80
2022-12-20T08:04:21.058Z,1.30
2022-12-20T08:06:48.230Z,1.00
2022-12-20T08:09:14.847Z,1.60
2022-12-20T08:11:43.417Z,2.00
2022-12-20T08:14:09.956Z,3.25
2022-12-20T08:16:36.440Z,3.22
2022-12-20T08:19:02.981Z,3.30
2022-12-20T08:21:29.983Z,3.95
2022-12-20T08:23:56.782Z,5.35
2022-12-20T08:26:23.340Z,7.10
2022-12-20T08:28:49.748Z,7.40
2022-12-20T08:31:16.241Z,4.68
2022-12-20T08:33:42.679Z,3.47
2022-12-20T08:36:11.001Z,2.63
2022-12-20T08:38:37.556Z,2.90
2022-12-20T08:41:05.361Z,2.13
2022-12-20T08:43:32.638Z,1.58
2022-12-20T08:45:59.610Z,1.80
2022-12-20T08:48:26.413Z,2.60
2022-12-20T08:50:56.852Z,3.55
2022-12-20T08:53:23.194Z,2.90
2022-12-20T08:55:49.620Z,2.30
2022-12-20T08:58:16.020Z,6.53
2022-12-20T09:00:42.332Z,6.90
2022-12-20T09:03:10.046Z,6.47
2022-12-20T09:05:36.693Z,6.40
2022-12-20T09:08:02.982Z,7.82
2022-12-20T09:10:29.285Z,8.48
2022-12-20T09:12:55.673Z,5.72
2022-12-20T09:15:22.023Z,4.97
2022-12-20T09:17:48.312Z,4.65
2022-12-20T09:20:15.746Z,4.75
2022-12-20T09:22:42.081Z,15.55
2022-12-20T09:25:08.716Z,10.57
2022-12-20T09:27:35.105Z,6.75
2022-12-20T09:30:01.396Z,4.70
2022-12-20T09:32:27.677Z,3.88
2022-12-20T09:34:53.995Z,3.00
2022-12-20T09:37:20.347Z,2.10
2022-12-20T09:39:48.751Z,1.90
2022-12-20T09:42:15.310Z,1.35
2022-12-20T09:44:42.342Z,2.00
2022-12-20T09:47:15.564Z,1.95
2022-12-20T09:49:43.559Z,2.03
2022-12-20T09:52:28.616Z,1.08
2022-12-20T09:55:07.918Z,4.93
2022-12-20T09:57:47.759Z,9.52
2022-12-20T10:00:15.207Z,10.48
2022-12-20T10:02:58.889Z,12.05
2022-12-20T10:05:45.967Z,10.80
2022-12-20T10:08:15.515Z,11.55
2022-12-20T10:10:45.654Z,15.55
2022-12-20T10:13:20.669Z,12.57
2022-12-20T10:15:52.962Z,8.07
2022-12-20T10:18:40.418Z,6.55
2022-12-20T10:21:25.671Z,6.47
2022-12-20T10:23:58.300Z,5.63
2022-12-20T10:26:24.693Z,5.43
2022-12-20T10:28:54.383Z,5.28
2022-12-20T10:31:21.565Z,5.32
2022-12-20T10:33:48.040Z,4.70
2022-12-20T10:36:40.514Z,4.47
2022-12-20T10:41:34.292Z,3.33
2022-12-20T10:44:06.024Z,2.80
2022-12-20T10:46:41.145Z,5.88
2022-12-20T10:49:27.019Z,8.18
2022-12-20T10:51:54.039Z,7.60
2022-12-20T10:54:40.772Z,6.78
2022-12-20T10:57:18.979Z,6.97
2022-12-20T10:59:55.932Z,4.80
2022-12-20T11:02:39.507Z,3.22
2022-12-20T11:05:14.569Z,2.92
2022-12-20T11:08:33.597Z,3.22
2022-12-20T11:10:42.966Z,2.40
2022-12-20T11:13:20.134Z,2.75
2022-12-20T11:15:51.766Z,2.10
2022-12-20T11:18:18.279Z,2.28
2022-12-20T11:20:51.987Z,1.90
2022-12-20T11:23:36.990Z,4.10
2022-12-20T11:26:18.511Z,3.58
2022-12-20T11:28:44.898Z,4.85
2022-12-20T11:31:29.755Z,3.22
2022-12-20T11:34:03.579Z,3.10
2022-12-20T11:36:33.003Z,1.77
2022-12-20T11:39:05.986Z,1.70
2022-12-20T11:41:38.709Z,1.48
2022-12-20T11:44:26.174Z,1.25
2022-12-20T11:47:15.690Z,1.90
2022-12-20T11:49:49.516Z,1.50
2022-12-20T11:52:24.322Z,1.40
2022-12-20T11:54:58.646Z,1.55
2022-12-20T11:57:48.087Z,2.10
2022-12-20T12:00:18.861Z,2.03
2022-12-20T12:03:11.519Z,1.83
2022-12-20T12:05:45.696Z,2.35
2022-12-20T12:08:18.544Z,2.03
2022-12-20T12:10:49.890Z,1.50
2022-12-20T12:13:18.883Z,1.23
2022-12-20T12:15:52.841Z,5.57
2022-12-20T12:18:25.040Z,4.50
2022-12-20T12:20:56.740Z,4.57
2022-12-20T12:23:26.609Z,4.60
2022-12-20T12:25:53.169Z,3.92
2022-12-20T12:28:20.830Z,5.15
2022-12-20T12:31:13.337Z,5.93
2022-12-20T12:33:45.794Z,5.72
2022-12-20T12:36:47.640Z,4.40
2022-12-20T12:39:20.765Z,4.47
2022-12-20T12:41:47.091Z,3.38
2022-12-20T12:44:31.913Z,2.83
2022-12-20T12:47:02.951Z,2.10
2022-12-20T12:49:30.576Z,1.52
2022-12-20T12:52:00.809Z,1.52
2022-12-20T12:54:27.081Z,1.67
2022-12-20T12:56:59.302Z,1.30
2022-12-20T12:59:34.657Z,1.17
2022-12-20T13:02:04.127Z,1.30
2022-12-20T13:04:51.183Z,1.50
2022-12-20T13:07:29.278Z,0.90
2022-12-20T13:09:55.690Z,0.98
2022-12-20T13:12:37.609Z,0.90
2022-12-20T13:15:22.073Z,1.00
2022-12-20T13:17:50.405Z,1.08
2022-12-20T13:20:19.725Z,0.90
2022-12-20T13:23:07.425Z,2.00
2022-12-20T13:25:35.834Z,2.22
2022-12-20T13:28:22.676Z,2.67
2022-12-20T13:31:10.105Z,5.88
2022-12-20T13:33:42.002Z,4.40
2022-12-20T13:36:11.190Z,3.80
2022-12-20T13:38:37.577Z,4.80
2022-12-20T13:41:11.298Z,5.03
2022-12-20T13:43:45.700Z,4.90
2022-12-20T13:46:13.308Z,4.43
2022-12-20T13:48:49.792Z,5.35
2022-12-20T13:51:17.984Z,3.72
2022-12-20T13:54:04.036Z,4.30
2022-12-20T13:56:36.024Z,3.67
2022-12-20T14:01:29.021Z,3.65
2022-12-20T14:03:55.687Z,5.80
2022-12-20T14:06:26.866Z,6.40
2022-12-20T14:08:53.674Z,4.30
2022-12-20T14:11:24.242Z,3.08
2022-12-20T14:13:58.048Z,3.25
2022-12-20T14:16:25.832Z,3.63
2022-12-20T14:19:13.496Z,4.70
2022-12-20T14:21:41.676Z,4.85
2022-12-20T14:24:15.846Z,4.20
2022-12-20T14:26:48.229Z,3.80
2022-12-20T14:29:19.323Z,2.20
2022-12-20T14:31:48.371Z,1.80
2022-12-20T14:34:25.864Z,1.10
2022-12-20T14:37:13.896Z,1.40
2022-12-20T14:39:53.962Z,1.55
2022-12-20T14:42:20.615Z,1.50
2022-12-20T14:44:47.105Z,1.27
2022-12-20T14:47:20.268Z,1.60
2022-12-20T14:49:52.501Z,1.42
2022-12-20T14:52:26.849Z,1.77
2022-12-20T14:55:11.685Z,1.35
2022-12-20T14:57:40.351Z,1.13
2022-12-20T15:00:16.006Z,1.10
2022-12-20T15:02:46.555Z,2.10
2022-12-20T15:05:31.696Z,1.90
2022-12-20T15:08:09.651Z,4.00
2022-12-20T15:10:36.068Z,5.38
2022-12-20T15:13:02.362Z,5.30
2022-12-20T15:15:29.909Z,5.00
2022-12-20T15:17:56.488Z,4.88
2022-12-20T15:20:22.826Z,4.00
2022-12-20T15:22:49.189Z,3.85
2022-12-20T15:25:16.429Z,2.80
2022-12-20T15:27:42.920Z,3.10
2022-12-20T15:30:15.235Z,3.00
2022-12-20T15:32:54.620Z,2.95
2022-12-20T15:35:21.847Z,3.90
2022-12-20T15:37:48.243Z,3.38
2022-12-20T15:40:15.006Z,3.30
2022-12-20T15:42:42.543Z,3.47
2022-12-20T15:45:15.449Z,3.15
2022-12-20T15:47:42.845Z,2.35
2022-12-20T15:50:10.447Z,1.85
2022-12-20T15:52:36.859Z,1.15
2022-12-20T15:55:03.215Z,1.48
2022-12-20T15:57:30.952Z,1.40
2022-12-20T16:00:01.208Z,1.00
2022-12-20T16:02:29.414Z,0.80
2022-12-20T16:04:57.814Z,0.70
2022-12-20T16:07:24.217Z,0.80
2022-12-20T16:09:50.570Z,0.98
2022-12-20T16:12:19.436Z,2.90
2022-12-20T16:14:45.908Z,1.73
2022-12-20T16:17:15.628Z,1.63
2022-12-20T16:19:42.684Z,1.98
2022-12-20T16:22:14.718Z,2.13
2022-12-20T16:27:07.883Z,1.70
2022-12-20T16:29:34.234Z,2.40
2022-12-20T16:32:00.676Z,2.42
2022-12-20T16:34:27.205Z,3.63
2022-12-20T16:36:53.527Z,3.10
2022-12-20T16:39:19.837Z,3.95
2022-12-20T16:41:46.233Z,4.72
2022-12-20T16:44:15.850Z,6.57
2022-12-20T16:46:42.405Z,7.68
2022-12-20T16:49:13.509Z,8.73
2022-12-20T16:51:47.386Z,6.10
2022-12-20T16:54:20.701Z,5.10
2022-12-20T16:56:47.566Z,5.97
2022-12-20T16:59:19.868Z,5.47
2022-12-20T17:01:48.900Z,5.63
2022-12-20T17:04:16.075Z,5.45
2022-12-20T17:06:43.258Z,5.38
2022-12-20T17:09:10.175Z,4.43
2022-12-20T17:11:36.946Z,4.25
2022-12-20T17:14:08.762Z,4.50
2022-12-20T17:16:38.582Z,4.03
2022-12-20T17:19:05.176Z,4.63
2022-12-20T17:24:21.590Z,4.00
2022-12-20T17:26:48.271Z,4.03
2022-12-20T17:29:14.783Z,3.78
2022-12-20T17:31:43.027Z,3.92
2022-12-20T17:34:17.877Z,4.68
2022-12-20T17:36:45.166Z,4.63
2022-12-20T17:39:11.558Z,4.38
2022-12-20T17:41:37.964Z,4.15
2022-12-20T17:44:05.074Z,4.78
2022-12-20T17:46:31.709Z,5.65
2022-12-20T17:48:58.107Z,5.18
2022-12-20T17:51:29.151Z,5.75
2022-12-20T17:53:56.470Z,5.43
2022-12-20T17:56:23.853Z,4.60
2022-12-20T17:58:50.319Z,4.35
2022-12-20T18:01:21.213Z,4.60
2022-12-20T18:04:04.976Z,5.05
2022-12-20T18:06:32.462Z,5.28
2022-12-20T18:08:58.856Z,5.13
2022-12-20T18:11:26.216Z,5.10
2022-12-20T18:13:53.796Z,4.43
2022-12-20T18:16:22.424Z,4.50
2022-12-20T18:18:48.936Z,3.95
2022-12-20T18:21:16.987Z,3.35
2022-12-20T18:23:43.925Z,3.92
2022-12-20T18:26:12.568Z,4.20
2022-12-20T18:28:39.617Z,4.35
2022-12-20T18:31:07.075Z,4.38
2022-12-20T18:33:33.793Z,4.43
2022-12-20T18:36:10.429Z,4.18
2022-12-20T18:38:38.084Z,3.90
2022-12-20T18:41:06.069Z,4.43
2022-12-20T18:43:33.635Z,4.75
2022-12-20T18:46:06.957Z,5.13
2022-12-20T18:48:33.689Z,4.40
2022-12-20T18:51:04.723Z,3.97
2022-12-20T18:53:32.160Z,6.03
2022-12-20T18:56:00.874Z,4.88
2022-12-20T18:58:27.271Z,4.15
2022-12-20T19:00:56.602Z,4.50
2022-12-20T19:03:23.093Z,4.00
2022-12-20T19:05:51.904Z,4.07
2022-12-20T19:08:19.092Z,4.40
2022-12-20T19:10:45.394Z,3.70
2022-12-20T19:13:11.809Z,4.05
2022-12-20T19:15:38.115Z,4.47
2022-12-20T19:18:04.671Z,4.25
2022-12-20T19:20:30.982Z,4.95
2022-12-20T19:22:57.425Z,4.35
2022-12-20T19:25:23.925Z,3.72
2022-12-20T19:27:50.334Z,3.60
2022-12-20T19:30:16.723Z,4.05
2022-12-20T19:32:43.084Z,4.22
2022-12-20T19:35:45.066Z,4.53
2022-12-20T19:37:55.738Z,4.60
2022-12-20T19:40:22.195Z,4.85
2022-12-20T19:42:48.544Z,4.05
2022-12-20T19:45:15.387Z,3.83
2022-12-20T19:47:41.713Z,3.97
2022-12-20T19:50:09.173Z,3.17
2022-12-20T19:52:35.555Z,4.15
2022-12-20T19:55:02.030Z,4.13
2022-12-20T19:57:28.388Z,3.60
2022-12-20T19:59:56.119Z,4.72
2022-12-20T20:02:23.217Z,4.30
2022-12-20T20:04:49.622Z,5.05
2022-12-20T20:07:15.963Z,3.83
2022-12-20T20:09:42.448Z,3.80
2022-12-20T20:12:08.840Z,5.00
2022-12-20T20:14:35.215Z,5.07
2022-12-20T20:17:01.707Z,5.15
2022-12-20T20:19:28.079Z,5.05
2022-12-20T20:21:54.523Z,4.53
2022-12-20T20:24:20.896Z,5.47
2022-12-20T20:26:47.364Z,6.03
2022-12-20T20:29:13.939Z,6.63
2022-12-20T20:31:40.466Z,5.50
2022-12-20T20:34:06.979Z,4.03
2022-12-20T20:36:33.439Z,5.25
2022-12-20T20:38:59.821Z,5.20
2022-12-20T20:41:26.208Z,5.40
2022-12-20T20:43:52.691Z,5.47
2022-12-20T20:46:19.207Z,5.05
2022-12-20T20:48:45.793Z,5.88
2022-12-20T20:51:12.674Z,5.32
2022-12-20T20:53:39.545Z,4.53
2022-12-20T20:56:06.593Z,4.50
2022-12-20T20:58:34.951Z,4.18
2022-12-20T21:01:02.356Z,4.28
2022-12-20T21:03:30.505Z,3.78
2022-12-20T21:06:34.981Z,3.08
2022-12-20T21:08:43.676Z,3.22
2022-12-20T21:11:10.536Z,3.13
2022-12-20T21:13:37.000Z,2.92
2022-12-20T21:16:07.419Z,3.05
2022-12-20T21:18:33.883Z,3.90
2022-12-20T21:21:04.708Z,3.75
2022-12-20T21:23:31.697Z,5.13
2022-12-20T21:25:58.554Z,4.40
2022-12-20T21:28:24.983Z,3.67
2022-12-20T21:31:01.213Z,3.30
2022-12-20T21:33:28.141Z,4.43
2022-12-20T21:36:01.697Z,3.63
2022-12-20T21:38:28.255Z,3.80
2022-12-20T21:41:01.637Z,3.70
2022-12-20T21:43:28.609Z,3.88
2022-12-20T21:45:55.055Z,3.72
2022-12-20T21:48:21.800Z,4.18
2022-12-20T21:51:01.147Z,3.83
2022-12-20T21:53:27.745Z,3.92
2022-12-20T21:55:55.468Z,4.18
2022-12-20T21:58:22.095Z,4.30
2022-12-20T22:00:54.346Z,4.53
2022-12-20T22:03:21.792Z,4.38
2022-12-20T22:05:49.095Z,4.10
2022-12-20T22:08:15.969Z,3.67
2022-12-20T22:10:42.630Z,4.18
2022-12-20T22:13:10.312Z,4.00
2022-12-20T22:15:37.744Z,4.22
2022-12-20T22:18:07.622Z,4.22
2022-12-20T22:20:34.976Z,3.90
2022-12-20T22:23:01.542Z,4.25
2022-12-20T22:25:28.097Z,4.25
2022-12-20T22:27:54.610Z,3.97
2022-12-20T22:30:20.902Z,4.68
2022-12-20T22:32:48.294Z,3.65
2022-12-20T22:35:19.163Z,3.40
2022-12-20T22:37:48.902Z,3.58
2022-12-20T22:40:15.554Z,3.95
2022-12-20T22:42:41.846Z,3.40
2022-12-20T22:45:08.602Z,4.30
2022-12-20T22:47:35.182Z,3.53
2022-12-20T22:50:01.533Z,3.55
2022-12-20T22:52:27.846Z,3.17
2022-12-20T22:54:54.265Z,3.40
2022-12-20T22:57:20.569Z,4.00
2022-12-20T22:59:46.851Z,3.90
2022-12-20T23:02:13.518Z,3.80
2022-12-20T23:04:39.950Z,4.53
2022-12-20T23:07:07.353Z,3.58
2022-12-20T23:09:33.910Z,3.97
2022-12-20T23:12:18.646Z,3.53
2022-12-20T23:15:04.601Z,4.10
2022-12-20T23:17:32.221Z,2.90
2022-12-20T23:20:17.173Z,3.17
2022-12-20T23:22:43.686Z,3.00
2022-12-20T23:25:14.807Z,2.83
2022-12-20T23:27:42.269Z,3.30
2022-12-20T23:30:10.977Z,3.00
2022-12-20T23:32:37.269Z,3.20
2022-12-20T23:35:10.017Z,2.70
2022-12-20T23:37:38.721Z,2.50
2022-12-20T23:40:05.747Z,2.55
2022-12-20T23:42:32.080Z,3.03
2022-12-20T23:44:58.388Z,2.67
2022-12-20T23:47:24.759Z,2.95
2022-12-20T23:49:51.136Z,2.53
2022-12-20T23:52:17.595Z,2.35
2022-12-20T23:54:44.007Z,2.78
2022-12-20T23:57:12.385Z,2.42
2022-12-20T23:59:38.919Z,2.58
